sensor_id;sensor_type;location;lat;lon;timestamp;pressure;altitude;pressure_sealevel;temperature;humidity
43364;BME280;40636;52.424;-1.948;2022-10-12T00:01:43;100659.59;;;4.33;100.00
43364;BME280;40636;52.424;-1.948;2022-10-12T00:04:10;100658.91;;;4.31;100.00
43364;BME280;40636;52.424;-1.948;2022-10-12T00:06:37;100660.63;;;4.32;100.00
43364;BME280;40636;52.424;-1.948;2022-10-12T00:09:04;100659.31;;;4.28;100.00
43364;BME280;40636;52.424;-1.948;2022-10-12T00:11:31;100656.41;;;4.29;100.00
43364;BME280;40636;52.424;-1.948;2022-10-12T00:13:58;100653.69;;;4.29;100.00
43364;BME280;40636;52.424;-1.948;2022-10-12T00:16:26;100647.16;;;4.24;100.00
43364;BME280;40636;52.424;-1.948;2022-10-12T00:18:57;100650.91;;;4.23;100.00
43364;BME280;40636;52.424;-1.948;2022-10-12T00:21:25;100653.06;;;4.27;100.00
43364;BME280;40636;52.424;-1.948;2022-10-12T00:23:55;100651.19;;;4.28;100.00
43364;BME280;40636;52.424;-1.948;2022-10-12T00:26:23;100650.13;;;4.29;100.00
43364;BME280;40636;52.424;-1.948;2022-10-12T00:28:56;100654.72;;;4.28;100.00
43364;BME280;40636;52.424;-1.948;2022-10-12T00:31:23;100647.22;;;4.30;100.00
43364;BME280;40636;52.424;-1.948;2022-10-12T00:33:50;100647.69;;;4.34;100.00
43364;BME280;40636;52.424;-1.948;2022-10-12T00:36:20;100644.19;;;4.40;100.00
43364;BME280;40636;52.424;-1.948;2022-10-12T00:38:47;100647.75;;;4.41;100.00
43364;BME280;40636;52.424;-1.948;2022-10-12T00:41:17;100645.31;;;4.46;100.00
43364;BME280;40636;52.424;-1.948;2022-10-12T00:43:45;100642.38;;;4.47;100.00
43364;BME280;40636;52.424;-1.948;2022-10-12T00:46:32;100638.03;;;4.53;100.00
43364;BME280;40636;52.424;-1.948;2022-10-12T00:51:37;100625.31;;;4.32;100.00
43364;BME280;40636;52.424;-1.948;2022-10-12T00:54:08;100626.47;;;4.23;100.00
43364;BME280;40636;52.424;-1.948;2022-10-12T00:56:37;100632.53;;;4.25;100.00
43364;BME280;40636;52.424;-1.948;2022-10-12T00:59:10;100632.53;;;4.25;100.00
43364;BME280;40636;52.424;-1.948;2022-10-12T01:01:37;100634.88;;;4.28;100.00
43364;BME280;40636;52.424;-1.948;2022-10-12T01:04:05;100623.59;;;4.31;100.00
43364;BME280;40636;52.424;-1.948;2022-10-12T01:06:33;100628.03;;;4.32;100.00
43364;BME280;40636;52.424;-1.948;2022-10-12T01:09:00;100620.50;;;4.34;100.00
43364;BME280;40636;52.424;-1.948;2022-10-12T01:11:27;100623.34;;;4.26;100.00
43364;BME280;40636;52.424;-1.948;2022-10-12T01:13:53;100618.31;;;4.23;100.00
43364;BME280;40636;52.424;-1.948;2022-10-12T01:22:09;100566.41;;;4.39;100.00
43364;BME280;40636;52.424;-1.948;2022-10-12T01:27:35;100574.19;;;4.42;100.00
43364;BME280;40636;52.424;-1.948;2022-10-12T01:33:08;100563.19;;;4.50;100.00
43364;BME280;40636;52.424;-1.948;2022-10-12T01:35:36;100568.91;;;4.62;100.00
43364;BME280;40636;52.424;-1.948;2022-10-12T01:40:49;100568.31;;;4.67;100.00
43364;BME280;40636;52.424;-1.948;2022-10-12T01:43:17;100559.78;;;4.70;100.00
43364;BME280;40636;52.424;-1.948;2022-10-12T01:45:45;100561.06;;;4.74;100.00
43364;BME280;40636;52.424;-1.948;2022-10-12T01:48:12;100565.25;;;4.76;100.00
43364;BME280;40636;52.424;-1.948;2022-10-12T01:50:48;100549.53;;;4.72;100.00
43364;BME280;40636;52.424;-1.948;2022-10-12T01:56:05;100556.47;;;4.74;100.00
43364;BME280;40636;52.424;-1.948;2022-10-12T02:01:24;100557.41;;;4.88;100.00
43364;BME280;40636;52.424;-1.948;2022-10-12T02:04:17;100544.50;;;4.97;100.00
43364;BME280;40636;52.424;-1.948;2022-10-12T02:06:52;100537.81;;;4.99;100.00
43364;BME280;40636;52.424;-1.948;2022-10-12T02:09:27;100535.59;;;5.09;100.00
43364;BME280;40636;52.424;-1.948;2022-10-12T02:11:58;100541.25;;;5.15;100.00
43364;BME280;40636;52.424;-1.948;2022-10-12T02:14:39;100535.00;;;5.21;100.00
43364;BME280;40636;52.424;-1.948;2022-10-12T02:17:12;100526.06;;;5.27;100.00
43364;BME280;40636;52.424;-1.948;2022-10-12T02:19:44;100527.16;;;5.39;100.00
43364;BME280;40636;52.424;-1.948;2022-10-12T02:22:14;100525.31;;;5.46;100.00
43364;BME280;40636;52.424;-1.948;2022-10-12T02:24:43;100523.44;;;5.53;100.00
43364;BME280;40636;52.424;-1.948;2022-10-12T02:27:13;100516.53;;;5.57;100.00
43364;BME280;40636;52.424;-1.948;2022-10-12T02:29:44;100510.69;;;5.60;100.00
43364;BME280;40636;52.424;-1.948;2022-10-12T02:32:22;100515.13;;;5.68;100.00
43364;BME280;40636;52.424;-1.948;2022-10-12T02:37:53;100496.72;;;5.77;100.00
43364;BME280;40636;52.424;-1.948;2022-10-12T02:40:37;100495.66;;;5.78;100.00
43364;BME280;40636;52.424;-1.948;2022-10-12T02:43:16;100494.22;;;5.82;100.00
43364;BME280;40636;52.424;-1.948;2022-10-12T02:45:47;100492.75;;;5.86;100.00
43364;BME280;40636;52.424;-1.948;2022-10-12T02:48:17;100490.44;;;5.83;100.00
43364;BME280;40636;52.424;-1.948;2022-10-12T02:50:46;100482.50;;;5.81;100.00
43364;BME280;40636;52.424;-1.948;2022-10-12T02:53:15;100484.59;;;5.86;100.00
43364;BME280;40636;52.424;-1.948;2022-10-12T02:55:51;100481.88;;;5.86;100.00
43364;BME280;40636;52.424;-1.948;2022-10-12T02:58:19;100482.09;;;5.91;100.00
43364;BME280;40636;52.424;-1.948;2022-10-12T03:00:45;100476.81;;;5.90;100.00
43364;BME280;40636;52.424;-1.948;2022-10-12T03:03:12;100477.03;;;5.88;100.00
43364;BME280;40636;52.424;-1.948;2022-10-12T03:05:39;100460.69;;;5.88;100.00
43364;BME280;40636;52.424;-1.948;2022-10-12T03:08:06;100470.72;;;5.81;100.00
43364;BME280;40636;52.424;-1.948;2022-10-12T03:10:32;100466.16;;;5.81;100.00
43364;BME280;40636;52.424;-1.948;2022-10-12T03:12:59;100454.00;;;5.77;100.00
43364;BME280;40636;52.424;-1.948;2022-10-12T03:15:26;100454.16;;;5.69;100.00
43364;BME280;40636;52.424;-1.948;2022-10-12T03:17:52;100449.53;;;5.63;100.00
43364;BME280;40636;52.424;-1.948;2022-10-12T03:20:19;100451.84;;;5.59;100.00
43364;BME280;40636;52.424;-1.948;2022-10-12T03:22:46;100453.09;;;5.50;100.00
43364;BME280;40636;52.424;-1.948;2022-10-12T03:25:12;100451.81;;;5.46;100.00
43364;BME280;40636;52.424;-1.948;2022-10-12T03:27:39;100450.16;;;5.45;100.00
43364;BME280;40636;52.424;-1.948;2022-10-12T03:30:07;100448.25;;;5.52;100.00
43364;BME280;40636;52.424;-1.948;2022-10-12T03:32:34;100440.28;;;5.44;100.00
43364;BME280;40636;52.424;-1.948;2022-10-12T03:35:00;100439.25;;;5.45;100.00
43364;BME280;40636;52.424;-1.948;2022-10-12T03:37:27;100445.09;;;5.42;100.00
43364;BME280;40636;52.424;-1.948;2022-10-12T03:39:54;100457.22;;;5.40;100.00
43364;BME280;40636;52.424;-1.948;2022-10-12T03:42:20;100448.03;;;5.41;100.00
43364;BME280;40636;52.424;-1.948;2022-10-12T03:44:47;100450.31;;;5.37;100.00
43364;BME280;40636;52.424;-1.948;2022-10-12T03:47:14;100449.66;;;5.28;100.00
43364;BME280;40636;52.424;-1.948;2022-10-12T03:49:41;100456.50;;;5.18;100.00
43364;BME280;40636;52.424;-1.948;2022-10-12T03:52:08;100453.78;;;5.18;100.00
43364;BME280;40636;52.424;-1.948;2022-10-12T03:54:35;100461.31;;;5.16;100.00
43364;BME280;40636;52.424;-1.948;2022-10-12T03:57:02;100455.41;;;5.05;100.00
43364;BME280;40636;52.424;-1.948;2022-10-12T03:59:28;100462.75;;;5.05;100.00
43364;BME280;40636;52.424;-1.948;2022-10-12T04:01:55;100457.50;;;5.03;100.00
43364;BME280;40636;52.424;-1.948;2022-10-12T04:04:22;100455.38;;;4.99;100.00
43364;BME280;40636;52.424;-1.948;2022-10-12T04:06:48;100447.03;;;5.00;100.00
43364;BME280;40636;52.424;-1.948;2022-10-12T04:09:15;100452.88;;;5.04;100.00
43364;BME280;40636;52.424;-1.948;2022-10-12T04:11:42;100452.28;;;5.08;100.00
43364;BME280;40636;52.424;-1.948;2022-10-12T04:14:08;100452.94;;;5.11;100.00
43364;BME280;40636;52.424;-1.948;2022-10-12T04:16:35;100442.06;;;5.11;100.00
43364;BME280;40636;52.424;-1.948;2022-10-12T04:19:02;100448.78;;;5.15;100.00
43364;BME280;40636;52.424;-1.948;2022-10-12T04:21:29;100443.72;;;5.12;100.00
43364;BME280;40636;52.424;-1.948;2022-10-12T04:23:57;100442.44;;;5.07;100.00
43364;BME280;40636;52.424;-1.948;2022-10-12T04:26:23;100440.78;;;5.13;100.00
43364;BME280;40636;52.424;-1.948;2022-10-12T04:28:50;100440.41;;;5.16;100.00
43364;BME280;40636;52.424;-1.948;2022-10-12T04:31:17;100433.88;;;5.11;100.00
43364;BME280;40636;52.424;-1.948;2022-10-12T04:33:44;100431.38;;;5.09;100.00
43364;BME280;40636;52.424;-1.948;2022-10-12T04:36:11;100437.22;;;5.06;100.00
43364;BME280;40636;52.424;-1.948;2022-10-12T04:38:37;100437.00;;;5.07;100.00
43364;BME280;40636;52.424;-1.948;2022-10-12T04:41:04;100431.56;;;5.07;100.00
43364;BME280;40636;52.424;-1.948;2022-10-12T04:43:31;100426.56;;;5.04;100.00
43364;BME280;40636;52.424;-1.948;2022-10-12T04:45:58;100428.66;;;5.09;100.00
43364;BME280;40636;52.424;-1.948;2022-10-12T04:48:25;100421.53;;;5.08;100.00
43364;BME280;40636;52.424;-1.948;2022-10-12T04:50:52;100418.78;;;5.01;100.00
43364;BME280;40636;52.424;-1.948;2022-10-12T04:53:19;100421.50;;;5.01;100.00
43364;BME280;40636;52.424;-1.948;2022-10-12T04:55:46;100427.16;;;5.00;100.00
43364;BME280;40636;52.424;-1.948;2022-10-12T04:58:13;100423.16;;;4.96;100.00
43364;BME280;40636;52.424;-1.948;2022-10-12T05:00:40;100419.78;;;4.94;100.00
43364;BME280;40636;52.424;-1.948;2022-10-12T05:03:07;100417.06;;;4.87;100.00
43364;BME280;40636;52.424;-1.948;2022-10-12T05:05:33;100413.44;;;4.80;100.00
43364;BME280;40636;52.424;-1.948;2022-10-12T05:08:02;100414.72;;;4.77;100.00
43364;BME280;40636;52.424;-1.948;2022-10-12T05:10:30;100412.63;;;4.79;100.00
43364;BME280;40636;52.424;-1.948;2022-10-12T05:12:56;100415.69;;;4.70;100.00
43364;BME280;40636;52.424;-1.948;2022-10-12T05:15:24;100416.53;;;4.70;100.00
43364;BME280;40636;52.424;-1.948;2022-10-12T05:17:51;100420.47;;;4.68;100.00
43364;BME280;40636;52.424;-1.948;2022-10-12T05:20:18;100410.47;;;4.68;100.00
43364;BME280;40636;52.424;-1.948;2022-10-12T05:22:45;100416.09;;;4.67;100.00
43364;BME280;40636;52.424;-1.948;2022-10-12T05:25:12;100404.59;;;4.65;100.00
43364;BME280;40636;52.424;-1.948;2022-10-12T05:27:40;100401.03;;;4.64;100.00
43364;BME280;40636;52.424;-1.948;2022-10-12T05:30:07;100411.72;;;4.66;100.00
43364;BME280;40636;52.424;-1.948;2022-10-12T05:32:34;100404.19;;;4.68;100.00
43364;BME280;40636;52.424;-1.948;2022-10-12T05:35:01;100398.56;;;4.76;100.00
43364;BME280;40636;52.424;-1.948;2022-10-12T05:37:28;100396.75;;;4.90;100.00
43364;BME280;40636;52.424;-1.948;2022-10-12T05:39:55;100399.09;;;4.99;100.00
43364;BME280;40636;52.424;-1.948;2022-10-12T05:42:22;100383.88;;;5.12;100.00
43364;BME280;40636;52.424;-1.948;2022-10-12T05:44:49;100388.25;;;5.13;100.00
43364;BME280;40636;52.424;-1.948;2022-10-12T05:47:16;100386.22;;;5.21;100.00
43364;BME280;40636;52.424;-1.948;2022-10-12T05:49:42;100387.69;;;5.30;100.00
43364;BME280;40636;52.424;-1.948;2022-10-12T05:52:10;100389.78;;;5.35;100.00
43364;BME280;40636;52.424;-1.948;2022-10-12T05:54:37;100391.50;;;5.36;100.00
43364;BME280;40636;52.424;-1.948;2022-10-12T05:57:04;100400.72;;;5.48;100.00
43364;BME280;40636;52.424;-1.948;2022-10-12T05:59:31;100401.97;;;5.52;100.00
43364;BME280;40636;52.424;-1.948;2022-10-12T06:01:57;100392.75;;;5.53;100.00
43364;BME280;40636;52.424;-1.948;2022-10-12T06:04:24;100390.25;;;5.58;100.00
43364;BME280;40636;52.424;-1.948;2022-10-12T06:06:51;100389.84;;;5.62;100.00
43364;BME280;40636;52.424;-1.948;2022-10-12T06:09:17;100390.50;;;5.64;100.00
43364;BME280;40636;52.424;-1.948;2022-10-12T06:11:44;100401.19;;;5.65;100.00
43364;BME280;40636;52.424;-1.948;2022-10-12T06:14:11;100403.28;;;5.70;100.00
43364;BME280;40636;52.424;-1.948;2022-10-12T06:16:38;100402.25;;;5.77;100.00
43364;BME280;40636;52.424;-1.948;2022-10-12T06:19:05;100396.38;;;5.87;100.00
43364;BME280;40636;52.424;-1.948;2022-10-12T06:21:31;100394.50;;;5.94;100.00
43364;BME280;40636;52.424;-1.948;2022-10-12T06:24:00;100397.88;;;5.96;100.00
43364;BME280;40636;52.424;-1.948;2022-10-12T06:26:28;100387.81;;;5.97;100.00
43364;BME280;40636;52.424;-1.948;2022-10-12T06:28:55;100389.50;;;5.98;100.00
43364;BME280;40636;52.424;-1.948;2022-10-12T06:31:22;100376.53;;;6.00;100.00
43364;BME280;40636;52.424;-1.948;2022-10-12T06:33:49;100383.19;;;6.04;100.00
43364;BME280;40636;52.424;-1.948;2022-10-12T06:36:16;100385.72;;;6.05;100.00
43364;BME280;40636;52.424;-1.948;2022-10-12T06:38:43;100378.16;;;6.07;100.00
43364;BME280;40636;52.424;-1.948;2022-10-12T06:41:10;100370.41;;;6.11;100.00
43364;BME280;40636;52.424;-1.948;2022-10-12T06:43:37;100360.56;;;6.17;100.00
43364;BME280;40636;52.424;-1.948;2022-10-12T06:46:04;100369.16;;;6.20;100.00
43364;BME280;40636;52.424;-1.948;2022-10-12T06:48:30;100361.81;;;6.27;100.00
43364;BME280;40636;52.424;-1.948;2022-10-12T06:50:57;100358.66;;;6.37;100.00
43364;BME280;40636;52.424;-1.948;2022-10-12T06:53:24;100351.28;;;6.51;100.00
43364;BME280;40636;52.424;-1.948;2022-10-12T06:55:54;100343.69;;;6.59;100.00
43364;BME280;40636;52.424;-1.948;2022-10-12T06:58:21;100343.00;;;6.71;100.00
43364;BME280;40636;52.424;-1.948;2022-10-12T07:00:47;100341.72;;;6.80;100.00
43364;BME280;40636;52.424;-1.948;2022-10-12T07:03:14;100327.41;;;6.91;100.00
43364;BME280;40636;52.424;-1.948;2022-10-12T07:05:42;100319.59;;;7.01;100.00
43364;BME280;40636;52.424;-1.948;2022-10-12T07:08:10;100317.63;;;7.08;100.00
43364;BME280;40636;52.424;-1.948;2022-10-12T07:10:37;100301.84;;;7.17;100.00
43364;BME280;40636;52.424;-1.948;2022-10-12T07:13:04;100305.63;;;7.23;100.00
43364;BME280;40636;52.424;-1.948;2022-10-12T07:15:31;100303.06;;;7.28;100.00
43364;BME280;40636;52.424;-1.948;2022-10-12T07:18:06;100311.41;;;7.33;100.00
43364;BME280;40636;52.424;-1.948;2022-10-12T07:20:34;100297.34;;;7.36;100.00
43364;BME280;40636;52.424;-1.948;2022-10-12T07:23:01;100292.03;;;7.41;100.00
43364;BME280;40636;52.424;-1.948;2022-10-12T07:25:28;100294.72;;;7.48;100.00
43364;BME280;40636;52.424;-1.948;2022-10-12T07:27:54;100297.19;;;7.56;100.00
43364;BME280;40636;52.424;-1.948;2022-10-12T07:30:21;100290.59;;;7.63;100.00
43364;BME280;40636;52.424;-1.948;2022-10-12T07:32:48;100296.00;;;7.70;100.00
43364;BME280;40636;52.424;-1.948;2022-10-12T07:35:15;100299.53;;;7.77;100.00
43364;BME280;40636;52.424;-1.948;2022-10-12T07:37:41;100305.53;;;7.86;100.00
43364;BME280;40636;52.424;-1.948;2022-10-12T07:40:09;100303.56;;;7.93;100.00
43364;BME280;40636;52.424;-1.948;2022-10-12T07:42:36;100292.59;;;8.00;100.00
43364;BME280;40636;52.424;-1.948;2022-10-12T07:45:23;100296.91;;;8.07;100.00
43364;BME280;40636;52.424;-1.948;2022-10-12T07:47:50;100306.72;;;8.15;100.00
43364;BME280;40636;52.424;-1.948;2022-10-12T07:50:17;100298.44;;;8.22;100.00
43364;BME280;40636;52.424;-1.948;2022-10-12T07:52:44;100299.22;;;8.29;100.00
43364;BME280;40636;52.424;-1.948;2022-10-12T07:55:11;100292.41;;;8.38;100.00
43364;BME280;40636;52.424;-1.948;2022-10-12T07:57:37;100286.84;;;8.45;100.00
43364;BME280;40636;52.424;-1.948;2022-10-12T08:00:05;100288.47;;;8.52;100.00
43364;BME280;40636;52.424;-1.948;2022-10-12T08:02:33;100288.00;;;8.55;100.00
43364;BME280;40636;52.424;-1.948;2022-10-12T08:05:01;100274.47;;;8.60;100.00
43364;BME280;40636;52.424;-1.948;2022-10-12T08:07:28;100286.63;;;8.64;100.00
43364;BME280;40636;52.424;-1.948;2022-10-12T08:09:54;100289.97;;;8.67;100.00
43364;BME280;40636;52.424;-1.948;2022-10-12T08:12:21;100300.84;;;8.73;100.00
43364;BME280;40636;52.424;-1.948;2022-10-12T08:14:48;100301.38;;;8.82;100.00
43364;BME280;40636;52.424;-1.948;2022-10-12T08:17:15;100301.66;;;8.92;100.00
43364;BME280;40636;52.424;-1.948;2022-10-12T08:19:42;100298.34;;;9.02;100.00
43364;BME280;40636;52.424;-1.948;2022-10-12T08:22:09;100304.34;;;9.10;100.00
43364;BME280;40636;52.424;-1.948;2022-10-12T08:24:37;100314.97;;;9.19;100.00
43364;BME280;40636;52.424;-1.948;2022-10-12T08:27:04;100315.47;;;9.27;100.00
43364;BME280;40636;52.424;-1.948;2022-10-12T08:29:31;100308.22;;;9.33;100.00
43364;BME280;40636;52.424;-1.948;2022-10-12T08:31:59;100306.44;;;9.38;100.00
43364;BME280;40636;52.424;-1.948;2022-10-12T08:34:27;100316.13;;;9.41;100.00
43364;BME280;40636;52.424;-1.948;2022-10-12T08:36:58;100311.59;;;9.47;100.00
43364;BME280;40636;52.424;-1.948;2022-10-12T08:39:25;100312.81;;;9.51;100.00
43364;BME280;40636;52.424;-1.948;2022-10-12T08:42:21;100318.78;;;9.59;100.00
43364;BME280;40636;52.424;-1.948;2022-10-12T08:47:49;100313.69;;;9.75;100.00
43364;BME280;40636;52.424;-1.948;2022-10-12T08:50:42;100314.16;;;9.83;100.00
43364;BME280;40636;52.424;-1.948;2022-10-12T08:53:22;100318.81;;;9.95;100.00
43364;BME280;40636;52.424;-1.948;2022-10-12T08:55:51;100322.19;;;10.08;100.00
43364;BME280;40636;52.424;-1.948;2022-10-12T08:58:21;100326.44;;;10.16;100.00
43364;BME280;40636;52.424;-1.948;2022-10-12T09:00:53;100332.44;;;10.25;100.00
43364;BME280;40636;52.424;-1.948;2022-10-12T09:03:33;100327.91;;;10.30;100.00
43364;BME280;40636;52.424;-1.948;2022-10-12T09:06:13;100333.75;;;10.34;100.00
43364;BME280;40636;52.424;-1.948;2022-10-12T09:08:45;100324.81;;;10.38;100.00
43364;BME280;40636;52.424;-1.948;2022-10-12T09:14:07;100310.59;;;10.53;100.00
43364;BME280;40636;52.424;-1.948;2022-10-12T09:16:42;100306.28;;;10.57;100.00
43364;BME280;40636;52.424;-1.948;2022-10-12T09:19:21;100302.34;;;10.65;100.00
43364;BME280;40636;52.424;-1.948;2022-10-12T09:21:48;100295.53;;;10.68;100.00
43364;BME280;40636;52.424;-1.948;2022-10-12T09:24:22;100283.69;;;10.67;100.00
43364;BME280;40636;52.424;-1.948;2022-10-12T09:26:53;100285.13;;;10.70;100.00
43364;BME280;40636;52.424;-1.948;2022-10-12T09:29:26;100291.22;;;10.72;100.00
43364;BME280;40636;52.424;-1.948;2022-10-12T09:34:29;100299.66;;;10.82;100.00
43364;BME280;40636;52.424;-1.948;2022-10-12T09:36:56;100295.38;;;10.86;100.00
43364;BME280;40636;52.424;-1.948;2022-10-12T09:39:34;100295.94;;;10.88;100.00
43364;BME280;40636;52.424;-1.948;2022-10-12T09:42:02;100293.75;;;11.02;100.00
43364;BME280;40636;52.424;-1.948;2022-10-12T09:44:36;100286.88;;;11.16;100.00
43364;BME280;40636;52.424;-1.948;2022-10-12T09:47:21;100283.25;;;11.27;100.00
43364;BME280;40636;52.424;-1.948;2022-10-12T09:49:57;100269.34;;;11.34;100.00
43364;BME280;40636;52.424;-1.948;2022-10-12T09:55:05;100266.16;;;11.25;100.00
43364;BME280;40636;52.424;-1.948;2022-10-12T09:57:38;100266.97;;;11.26;100.00
43364;BME280;40636;52.424;-1.948;2022-10-12T10:02:51;100266.25;;;11.30;100.00
43364;BME280;40636;52.424;-1.948;2022-10-12T10:05:38;100256.63;;;11.45;100.00
43364;BME280;40636;52.424;-1.948;2022-10-12T10:08:18;100256.88;;;11.60;100.00
43364;BME280;40636;52.424;-1.948;2022-10-12T10:10:56;100248.53;;;11.72;100.00
43364;BME280;40636;52.424;-1.948;2022-10-12T10:13:28;100250.13;;;11.84;100.00
43364;BME280;40636;52.424;-1.948;2022-10-12T10:16:05;100249.97;;;11.91;100.00
43364;BME280;40636;52.424;-1.948;2022-10-12T10:21:08;100254.88;;;12.06;100.00
43364;BME280;40636;52.424;-1.948;2022-10-12T10:24:00;100244.25;;;12.14;100.00
43364;BME280;40636;52.424;-1.948;2022-10-12T10:26:57;100252.38;;;12.26;99.30
43364;BME280;40636;52.424;-1.948;2022-10-12T10:29:36;100260.81;;;12.36;98.52
43364;BME280;40636;52.424;-1.948;2022-10-12T10:32:22;100262.41;;;12.54;97.55
43364;BME280;40636;52.424;-1.948;2022-10-12T10:37:46;100232.47;;;12.85;97.13
43364;BME280;40636;52.424;-1.948;2022-10-12T10:40:19;100242.47;;;12.91;94.83
43364;BME280;40636;52.424;-1.948;2022-10-12T10:42:52;100242.13;;;12.87;94.38
43364;BME280;40636;52.424;-1.948;2022-10-12T10:45:29;100249.31;;;12.88;94.79
43364;BME280;40636;52.424;-1.948;2022-10-12T10:47:57;100253.81;;;12.94;94.97
43364;BME280;40636;52.424;-1.948;2022-10-12T10:50:34;100256.38;;;13.06;95.06
43364;BME280;40636;52.424;-1.948;2022-10-12T10:53:16;100265.25;;;13.08;93.08
43364;BME280;40636;52.424;-1.948;2022-10-12T10:58:23;100252.50;;;13.02;93.64
43364;BME280;40636;52.424;-1.948;2022-10-12T11:00:57;100250.06;;;13.06;94.17
43364;BME280;40636;52.424;-1.948;2022-10-12T11:03:33;100251.09;;;13.00;93.41
43364;BME280;40636;52.424;-1.948;2022-10-12T11:06:16;100252.72;;;12.95;93.18
43364;BME280;40636;52.424;-1.948;2022-10-12T11:08:45;100239.03;;;13.06;92.91
43364;BME280;40636;52.424;-1.948;2022-10-12T11:11:19;100232.47;;;13.12;92.35
43364;BME280;40636;52.424;-1.948;2022-10-12T11:16:48;100217.13;;;13.48;91.90
43364;BME280;40636;52.424;-1.948;2022-10-12T11:19:28;100217.50;;;13.62;91.63
43364;BME280;40636;52.424;-1.948;2022-10-12T11:22:09;100211.72;;;13.58;91.10
43364;BME280;40636;52.424;-1.948;2022-10-12T11:24:52;100215.13;;;13.76;90.75
43364;BME280;40636;52.424;-1.948;2022-10-12T11:27:34;100216.94;;;13.97;91.05
43364;BME280;40636;52.424;-1.948;2022-10-12T11:30:08;100210.91;;;14.05;89.49
43364;BME280;40636;52.424;-1.948;2022-10-12T11:32:41;100211.44;;;14.02;88.23
43364;BME280;40636;52.424;-1.948;2022-10-12T11:35:14;100211.91;;;13.89;87.79
43364;BME280;40636;52.424;-1.948;2022-10-12T11:37:50;100213.25;;;13.81;88.76
43364;BME280;40636;52.424;-1.948;2022-10-12T11:40:31;100214.59;;;13.79;89.75
43364;BME280;40636;52.424;-1.948;2022-10-12T11:43:22;100219.13;;;13.95;90.11
43364;BME280;40636;52.424;-1.948;2022-10-12T11:45:52;100214.50;;;14.06;88.92
43364;BME280;40636;52.424;-1.948;2022-10-12T11:48:43;100207.53;;;13.98;88.33
43364;BME280;40636;52.424;-1.948;2022-10-12T11:51:12;100205.31;;;13.90;88.88
43364;BME280;40636;52.424;-1.948;2022-10-12T11:54:03;100204.78;;;13.98;88.80
43364;BME280;40636;52.424;-1.948;2022-10-12T11:56:45;100200.63;;;13.90;89.64
43364;BME280;40636;52.424;-1.948;2022-10-12T11:59:43;100200.84;;;13.84;89.20
43364;BME280;40636;52.424;-1.948;2022-10-12T12:02:22;100205.53;;;13.83;89.09
43364;BME280;40636;52.424;-1.948;2022-10-12T12:04:53;100196.16;;;13.84;88.08
43364;BME280;40636;52.424;-1.948;2022-10-12T12:15:38;100189.84;;;13.94;89.25
43364;BME280;40636;52.424;-1.948;2022-10-12T12:18:14;100186.53;;;13.87;89.08
43364;BME280;40636;52.424;-1.948;2022-10-12T12:23:20;100195.91;;;13.86;88.64
43364;BME280;40636;52.424;-1.948;2022-10-12T12:26:13;100189.50;;;13.80;88.46
43364;BME280;40636;52.424;-1.948;2022-10-12T12:28:51;100187.00;;;13.74;89.10
43364;BME280;40636;52.424;-1.948;2022-10-12T12:31:34;100188.31;;;13.66;89.50
43364;BME280;40636;52.424;-1.948;2022-10-12T12:34:04;100182.53;;;13.67;89.37
43364;BME280;40636;52.424;-1.948;2022-10-12T12:36:34;100164.91;;;13.74;90.80
43364;BME280;40636;52.424;-1.948;2022-10-12T12:39:05;100160.84;;;13.81;90.23
43364;BME280;40636;52.424;-1.948;2022-10-12T13:03:12;100147.66;;;13.99;90.46
43364;BME280;40636;52.424;-1.948;2022-10-12T13:06:12;100146.59;;;14.00;89.37
43364;BME280;40636;52.424;-1.948;2022-10-12T13:20:16;100140.31;;;14.14;88.38
43364;BME280;40636;52.424;-1.948;2022-10-12T13:22:45;100134.03;;;14.34;89.28
43364;BME280;40636;52.424;-1.948;2022-10-12T13:25:39;100138.47;;;14.40;87.48
43364;BME280;40636;52.424;-1.948;2022-10-12T13:28:12;100140.94;;;14.32;87.30
43364;BME280;40636;52.424;-1.948;2022-10-12T13:33:37;100143.06;;;14.09;88.34
43364;BME280;40636;52.424;-1.948;2022-10-12T13:36:21;100140.53;;;14.03;88.36
43364;BME280;40636;52.424;-1.948;2022-10-12T13:38:57;100131.13;;;13.99;89.49
43364;BME280;40636;52.424;-1.948;2022-10-12T13:41:26;100116.78;;;14.02;90.23
43364;BME280;40636;52.424;-1.948;2022-10-12T13:43:56;100123.13;;;13.97;89.99
43364;BME280;40636;52.424;-1.948;2022-10-12T13:46:42;100115.91;;;13.86;90.40
43364;BME280;40636;52.424;-1.948;2022-10-12T13:49:21;100117.56;;;13.87;90.88
43364;BME280;40636;52.424;-1.948;2022-10-12T13:52:00;100118.63;;;13.81;91.10
43364;BME280;40636;52.424;-1.948;2022-10-12T13:54:39;100113.13;;;13.81;91.16
43364;BME280;40636;52.424;-1.948;2022-10-12T13:59:59;100119.22;;;13.88;91.84
43364;BME280;40636;52.424;-1.948;2022-10-12T14:02:29;100116.16;;;13.89;92.14
43364;BME280;40636;52.424;-1.948;2022-10-12T14:04:58;100110.72;;;13.94;92.58
43364;BME280;40636;52.424;-1.948;2022-10-12T14:07:32;100112.09;;;13.97;92.02
43364;BME280;40636;52.424;-1.948;2022-10-12T14:10:07;100102.72;;;14.03;91.58
43364;BME280;40636;52.424;-1.948;2022-10-12T14:12:35;100095.03;;;14.10;91.46
43364;BME280;40636;52.424;-1.948;2022-10-12T14:15:03;100096.16;;;14.14;92.44
43364;BME280;40636;52.424;-1.948;2022-10-12T14:17:31;100100.28;;;14.17;91.62
43364;BME280;40636;52.424;-1.948;2022-10-12T14:20:15;100103.31;;;14.15;91.44
43364;BME280;40636;52.424;-1.948;2022-10-12T14:22:46;100100.53;;;14.10;91.16
43364;BME280;40636;52.424;-1.948;2022-10-12T14:25:19;100104.41;;;14.09;91.29
43364;BME280;40636;52.424;-1.948;2022-10-12T14:27:58;100098.91;;;14.09;91.80
43364;BME280;40636;52.424;-1.948;2022-10-12T14:30:34;100093.91;;;14.06;91.90
43364;BME280;40636;52.424;-1.948;2022-10-12T14:33:21;100094.72;;;14.07;93.02
43364;BME280;40636;52.424;-1.948;2022-10-12T14:35:49;100096.94;;;14.00;93.66
43364;BME280;40636;52.424;-1.948;2022-10-12T14:38:37;100095.53;;;13.97;94.24